Time;durP1;ratioP1;P1;durP2;ratioP2;P2;SDS_P1;SDS_P2;PMS_P1;PMS_P2;Temp;Humidity;BMP_temperature;BMP_pressure;BME280_temperature;BME280_humidity;BME280_pressure;Samples;Min_cycle;Max_cycle;Signal;HPM_P1;HPM_P2
2024/01/03 00:01:49;;;;;;;9.88;2.80;;;;;;;9.65;100.00;98585.84;6080605;19;20014;-72
2024/01/03 00:03:56;;;;;;;13.45;3.78;;;;;;;9.59;100.00;98599.41;6081429;19;20465;-73
2024/01/03 00:06:04;;;;;;;11.38;2.72;;;;;;;9.64;100.00;98594.66;6082168;19;20013;-72
2024/01/03 00:08:16;;;;;;;16.20;3.42;;;;;;;9.60;100.00;98606.31;6083621;19;20098;-73
2024/01/03 00:10:36;;;;;;;13.88;3.38;;;;;;;9.67;100.00;98618.03;5989358;19;2004692;-71
2024/01/03 00:12:41;;;;;;;15.52;3.60;;;;;;;9.70;100.00;98637.13;6082866;19;20003;-72
2024/01/03 00:14:46;;;;;;;11.60;2.47;;;;;;;9.69;100.00;98607.44;6076439;19;20502;-72
2024/01/03 00:16:48;;;;;;;15.60;2.88;;;;;;;9.72;100.00;98620.34;6081622;19;20015;-73
2024/01/03 00:18:55;;;;;;;14.30;4.00;;;;;;;9.73;100.00;98629.88;6082981;19;20315;-74
2024/01/03 00:21:01;;;;;;;11.77;3.47;;;;;;;9.68;100.00;98637.22;6081139;19;20063;-73
2024/01/03 00:23:12;;;;;;;16.30;3.05;;;;;;;9.62;100.00;98628.03;6083057;19;20370;-73
2024/01/03 00:25:15;;;;;;;15.13;2.95;;;;;;;9.65;100.00;98630.41;6080953;19;20113;-73
2024/01/03 00:27:22;;;;;;;13.05;4.05;;;;;;;9.71;100.00;98633.56;6085088;19;20070;-73
2024/01/03 00:29:52;;;;;;;12.77;2.53;;;;;;;9.71;100.00;98647.50;6082998;19;20355;-73
2024/01/03 00:31:58;;;;;;;11.02;3.38;;;;;;;9.75;100.00;98653.38;6079136;19;20102;-72
2024/01/03 00:34:03;;;;;;;11.27;2.63;;;;;;;9.72;100.00;98648.34;6081955;19;20015;-70
2024/01/03 00:36:09;;;;;;;17.00;4.28;;;;;;;9.75;100.00;98645.50;6082184;19;20078;-70
2024/01/03 00:38:16;;;;;;;14.52;3.03;;;;;;;9.73;100.00;98656.09;6084097;19;20017;-70
2024/01/03 00:40:53;;;;;;;11.02;2.78;;;;;;;9.72;100.00;98661.47;6081642;19;20007;-70
2024/01/03 00:42:58;;;;;;;14.13;3.25;;;;;;;9.71;100.00;98659.78;5976487;19;2004760;-70
2024/01/03 00:45:04;;;;;;;16.40;3.95;;;;;;;9.72;100.00;98672.78;6080341;19;22777;-69
2024/01/03 00:47:06;;;;;;;18.02;3.67;;;;;;;9.72;100.00;98666.72;6077247;19;20017;-70
2024/01/03 00:49:12;;;;;;;24.92;3.45;;;;;;;9.71;100.00;98680.75;6081384;19;20333;-70
2024/01/03 00:51:20;;;;;;;10.73;4.00;;;;;;;9.63;100.00;98678.69;6083828;19;20014;-72
2024/01/03 00:53:28;;;;;;;16.73;3.97;;;;;;;9.71;100.00;98680.75;6084970;19;20082;-70
2024/01/03 00:55:31;;;;;;;19.83;3.63;;;;;;;9.71;100.00;98675.50;6087472;19;20011;-70
2024/01/03 00:57:36;;;;;;;16.63;3.80;;;;;;;9.72;100.00;98679.81;6087059;19;20031;-71
2024/01/03 00:59:44;;;;;;;20.20;4.30;;;;;;;9.76;100.00;98694.38;6085046;19;20015;-70
2024/01/03 01:01:50;;;;;;;16.17;4.32;;;;;;;9.72;100.00;98683.28;6081788;19;20007;-70
2024/01/03 01:03:54;;;;;;;14.05;3.50;;;;;;;9.68;100.00;98703.63;6085189;19;20010;-70
2024/01/03 01:06:00;;;;;;;11.30;2.70;;;;;;;9.76;100.00;98695.22;6086060;19;20034;-71
2024/01/03 01:08:06;;;;;;;30.55;5.18;;;;;;;9.72;100.00;98700.81;6087024;19;20019;-71
2024/01/03 01:10:14;;;;;;;14.35;3.83;;;;;;;9.75;100.00;98703.22;6086631;19;20082;-71
2024/01/03 01:12:20;;;;;;;9.35;2.33;;;;;;;9.76;100.00;98694.38;6079713;19;20487;-71
2024/01/03 01:14:23;;;;;;;22.60;3.42;;;;;;;9.76;100.00;98715.38;6084596;19;20027;-70
2024/01/03 01:16:28;;;;;;;19.23;4.45;;;;;;;9.76;100.00;98721.44;6084185;19;20438;-72
2024/01/03 01:18:33;;;;;;;19.77;4.22;;;;;;;9.72;100.00;98737.53;6086159;19;20470;-74
2024/01/03 01:20:38;;;;;;;18.75;3.72;;;;;;;9.71;100.00;98722.72;6086484;19;20013;-72
2024/01/03 01:22:43;;;;;;;15.50;3.65;;;;;;;9.72;100.00;98732.28;6086260;19;20030;-74
2024/01/03 01:24:48;;;;;;;15.15;3.28;;;;;;;9.71;100.00;98735.84;6084154;19;20010;-72
2024/01/03 01:26:55;;;;;;;10.02;2.90;;;;;;;9.71;100.00;98735.84;6087316;19;20010;-72
2024/01/03 01:28:58;;;;;;;12.63;4.00;;;;;;;9.73;100.00;98734.78;6087046;19;20363;-73
2024/01/03 01:31:03;;;;;;;16.45;2.78;;;;;;;9.72;100.00;98740.16;6078544;19;20046;-72
2024/01/03 01:33:08;;;;;;;10.90;3.85;;;;;;;9.68;100.00;98757.88;6083099;19;20006;-72
2024/01/03 01:35:10;;;;;;;11.75;3.10;;;;;;;9.68;100.00;98748.22;6086559;19;20015;-73
2024/01/03 01:37:15;;;;;;;11.18;3.38;;;;;;;9.70;100.00;98763.84;6086335;19;20039;-73
2024/01/03 01:39:20;;;;;;;22.55;4.18;;;;;;;9.71;100.00;98764.69;6086529;19;20332;-73
2024/01/03 01:41:23;;;;;;;24.65;4.57;;;;;;;9.71;100.00;98762.88;6085787;19;20024;-73
2024/01/03 01:43:30;;;;;;;12.57;3.08;;;;;;;9.71;100.00;98762.06;6086931;19;20007;-73
2024/01/03 01:45:36;;;;;;;19.13;4.25;;;;;;;9.73;100.00;98761.00;6084772;19;20006;-73
2024/01/03 01:47:43;;;;;;;15.02;3.53;;;;;;;9.71;100.00;98785.66;6086065;19;20002;-73
2024/01/03 01:49:46;;;;;;;16.52;3.60;;;;;;;9.70;100.00;98768.25;6082194;19;20282;-73
2024/01/03 01:51:52;;;;;;;13.95;3.30;;;;;;;9.67;100.00;98780.63;6084903;19;20018;-73
2024/01/03 01:53:57;;;;;;;14.48;3.13;;;;;;;9.67;100.00;98767.53;6083698;19;20045;-73
2024/01/03 01:56:03;;;;;;;16.80;2.95;;;;;;;9.61;100.00;98781.06;6085500;19;20014;-72
2024/01/03 01:58:09;;;;;;;18.20;2.60;;;;;;;9.58;100.00;98789.13;6081867;19;20013;-72
2024/01/03 02:00:18;;;;;;;8.85;2.28;;;;;;;9.59;100.00;98788.19;6081576;19;20020;-72
2024/01/03 02:02:26;;;;;;;13.43;2.63;;;;;;;9.61;100.00;98786.31;6082890;19;20021;-72
2024/01/03 02:04:31;;;;;;;15.68;3.80;;;;;;;9.59;100.00;98803.09;6082736;19;20375;-72
2024/01/03 02:06:37;;;;;;;11.35;3.17;;;;;;;9.61;100.00;98796.81;6085793;19;20015;-73
2024/01/03 02:08:42;;;;;;;13.85;3.55;;;;;;;9.57;100.00;98795.31;6084159;19;20102;-71
2024/01/03 02:10:47;;;;;;;13.05;3.53;;;;;;;9.52;100.00;98802.66;6083308;19;20007;-71
2024/01/03 02:12:52;;;;;;;13.15;3.40;;;;;;;9.52;100.00;98800.06;6083140;19;20030;-71
2024/01/03 02:14:57;;;;;;;16.83;4.53;;;;;;;9.43;100.00;98798.91;6086867;19;20454;-71
2024/01/03 02:17:05;;;;;;;17.23;3.25;;;;;;;9.46;100.00;98808.34;6085003;19;20003;-71
2024/01/03 02:19:09;;;;;;;15.25;3.42;;;;;;;9.48;100.00;98800.34;6084898;19;20338;-72
2024/01/03 02:21:18;;;;;;;23.75;3.50;;;;;;;9.50;100.00;98807.19;6085729;19;20477;-71
2024/01/03 02:23:24;;;;;;;14.85;3.20;;;;;;;9.43;100.00;98804.16;6083923;19;20027;-72
2024/01/03 02:25:29;;;;;;;21.38;4.47;;;;;;;9.45;100.00;98814.50;6086178;19;20022;-73
2024/01/03 02:27:34;;;;;;;23.67;5.25;;;;;;;9.40;100.00;98807.00;6085157;19;20015;-71
2024/01/03 02:29:39;;;;;;;13.82;3.53;;;;;;;9.45;100.00;98804.03;6083701;19;20007;-73
2024/01/03 02:31:42;;;;;;;23.10;4.00;;;;;;;9.44;100.00;98805.81;6082295;19;20031;-71
2024/01/03 02:33:47;;;;;;;19.27;5.32;;;;;;;9.40;100.00;98807.00;6084049;19;20276;-72
2024/01/03 02:35:52;;;;;;;17.65;3.58;;;;;;;9.39;100.00;98814.94;6080208;19;20010;-72
2024/01/03 02:38:00;;;;;;;17.80;3.85;;;;;;;9.44;100.00;98811.06;6081642;19;20014;-73
2024/01/03 02:40:05;;;;;;;15.55;2.65;;;;;;;9.48;100.00;98814.34;6082259;19;20082;-72
2024/01/03 02:42:10;;;;;;;13.60;2.40;;;;;;;9.50;100.00;98819.44;6080702;19;20369;-71
2024/01/03 02:44:15;;;;;;;16.38;3.65;;;;;;;9.52;100.00;98814.94;6082739;19;20070;-73
2024/01/03 02:46:20;;;;;;;17.58;4.07;;;;;;;9.55;100.00;98819.97;6078100;19;20372;-73
2024/01/03 02:48:25;;;;;;;23.58;4.85;;;;;;;9.55;100.00;98822.59;6082856;19;20006;-73
2024/01/03 02:50:28;;;;;;;11.38;2.38;;;;;;;9.51;100.00;98832.47;6084544;19;20015;-71
2024/01/03 02:52:34;;;;;;;16.58;3.00;;;;;;;9.55;100.00;98833.09;6080458;19;20830;-71
2024/01/03 02:54:42;;;;;;;22.08;5.10;;;;;;;9.59;100.00;98829.31;6081793;19;20473;-72
2024/01/03 02:56:47;;;;;;;19.45;4.07;;;;;;;9.62;100.00;98829.94;6080243;19;20023;-71
2024/01/03 02:58:55;;;;;;;12.35;2.95;;;;;;;9.63;100.00;98823.75;6081089;19;20046;-71
2024/01/03 03:01:00;;;;;;;18.65;4.60;;;;;;;9.59;100.00;98822.28;6080825;19;20014;-72
2024/01/03 03:03:03;;;;;;;16.25;4.50;;;;;;;9.67;100.00;98816.53;6083001;19;20014;-72
2024/01/03 03:05:09;;;;;;;21.38;5.07;;;;;;;9.69;100.00;98825.13;6080602;19;20022;-73
2024/01/03 03:07:16;;;;;;;15.32;3.40;;;;;;;9.69;100.00;98822.50;6080167;19;20617;-71
2024/01/03 03:09:19;;;;;;;22.45;4.25;;;;;;;9.65;100.00;98834.97;6082638;19;20002;-71
2024/01/03 03:11:26;;;;;;;13.82;2.90;;;;;;;9.68;100.00;98833.91;6082012;19;20196;-71
2024/01/03 03:13:32;;;;;;;20.02;4.43;;;;;;;9.70;100.00;98828.59;6081918;19;20011;-71
2024/01/03 03:15:37;;;;;;;19.90;4.43;;;;;;;9.88;100.00;98827.31;6082182;19;20427;-70
2024/01/03 03:17:43;;;;;;;22.67;4.07;;;;;;;9.71;100.00;98832.88;6083476;19;20014;-71
2024/01/03 03:19:48;;;;;;;21.80;3.03;;;;;;;9.71;100.00;98827.63;6081999;19;20051;-72
2024/01/03 03:21:51;;;;;;;19.13;3.80;;;;;;;9.68;100.00;98824.25;6082685;19;20010;-73
2024/01/03 03:23:56;;;;;;;19.70;4.38;;;;;;;9.70;100.00;98828.59;6083088;19;20385;-71
2024/01/03 03:26:03;;;;;;;19.10;4.40;;;;;;;9.68;100.00;98823.44;6080768;19;20086;-71
2024/01/03 03:28:11;;;;;;;25.10;5.00;;;;;;;9.67;100.00;98822.59;6084262;19;20006;-71
2024/01/03 03:30:16;;;;;;;15.32;4.68;;;;;;;9.65;100.00;98834.97;6083703;19;20002;-71
2024/01/03 03:32:22;;;;;;;26.83;4.05;;;;;;;9.68;100.00;98829.50;6082026;19;20002;-72
2024/01/03 03:34:25;;;;;;;17.90;3.47;;;;;;;9.70;100.00;98832.03;6082946;19;20069;-72
2024/01/03 03:36:30;;;;;;;30.58;5.85;;;;;;;9.68;100.00;98826.88;6081863;19;20270;-71
2024/01/03 03:38:38;;;;;;;12.13;3.33;;;;;;;9.72;100.00;98827.53;6081495;19;20038;-73
2024/01/03 03:40:43;;;;;;;16.38;5.97;;;;;;;9.67;100.00;98833.09;6081125;19;20026;-73
2024/01/03 03:42:48;;;;;;;17.10;3.03;;;;;;;9.65;100.00;98840.22;6080703;19;20003;-72
2024/01/03 03:44:56;;;;;;;22.98;3.80;;;;;;;9.62;100.00;98832.56;6080778;19;19999;-71
2024/01/03 03:47:01;;;;;;;21.50;4.47;;;;;;;9.58;100.00;98841.56;6080023;19;20021;-73
2024/01/03 03:49:06;;;;;;;27.38;5.75;;;;;;;9.56;100.00;98847.91;6081692;19;20100;-70
2024/01/03 03:51:11;;;;;;;23.63;6.43;;;;;;;9.56;100.00;98846.09;6080364;19;20010;-71
2024/01/03 03:53:16;;;;;;;23.33;4.32;;;;;;;9.55;100.00;98844.41;6078639;19;20010;-74
2024/01/03 03:55:22;;;;;;;9.82;3.33;;;;;;;9.61;100.00;98849.25;6080842;19;21346;-72
2024/01/03 03:57:27;;;;;;;19.42;4.40;;;;;;;9.72;100.00;98851.13;6080154;19;20033;-71
2024/01/03 03:59:32;;;;;;;22.25;4.35;;;;;;;9.54;100.00;98852.41;6080075;19;20322;-71
2024/01/03 04:01:39;;;;;;;23.77;4.88;;;;;;;9.48;100.00;98858.91;6079194;19;20109;-71
2024/01/03 04:03:44;;;;;;;19.23;4.55;;;;;;;9.43;100.00;98850.50;6074189;19;20029;-71
2024/01/03 04:05:50;;;;;;;22.08;4.60;;;;;;;9.55;100.00;98854.06;6082529;19;20042;-71
2024/01/03 04:07:55;;;;;;;34.42;5.60;;;;;;;9.53;100.00;98846.31;6083443;19;20010;-72
2024/01/03 04:10:00;;;;;;;31.08;3.97;;;;;;;9.65;100.00;98849.88;6082147;19;20014;-72
2024/01/03 04:12:07;;;;;;;29.98;5.35;;;;;;;9.53;100.00;98854.19;6084351;19;20010;-72
2024/01/03 04:14:12;;;;;;;24.13;4.13;;;;;;;9.63;100.00;98851.75;6083492;19;20019;-72
2024/01/03 04:16:17;;;;;;;25.33;4.07;;;;;;;9.58;100.00;98853.84;6080160;19;20015;-72
2024/01/03 04:18:22;;;;;;;29.52;3.60;;;;;;;9.47;100.00;98854.59;6082596;19;20006;-73
2024/01/03 04:20:27;;;;;;;31.05;6.45;;;;;;;9.62;100.00;98856.16;6084951;19;20026;-73
2024/01/03 04:22:33;;;;;;;13.95;4.10;;;;;;;9.66;100.00;98862.03;6082461;19;20783;-72
2024/01/03 04:24:38;;;;;;;19.83;6.40;;;;;;;9.63;100.00;98851.75;6082354;19;20015;-72
2024/01/03 04:26:42;;;;;;;26.15;4.80;;;;;;;9.67;100.00;98869.81;6087380;19;20003;-73
2024/01/03 04:28:47;;;;;;;15.98;3.63;;;;;;;9.66;100.00;98852.41;6088774;19;20003;-72
2024/01/03 04:30:50;;;;;;;19.55;4.32;;;;;;;9.68;100.00;98860.16;6088943;19;20102;-72
2024/01/03 04:32:55;;;;;;;19.65;4.55;;;;;;;9.70;100.00;98857.44;6089412;19;20011;-71
2024/01/03 04:35:00;;;;;;;20.98;4.18;;;;;;;9.76;100.00;98851.75;6080855;19;20070;-72
2024/01/03 04:37:05;;;;;;;21.25;5.10;;;;;;;9.74;100.00;98848.41;6086392;19;20038;-70
2024/01/03 04:39:10;;;;;;;22.52;4.60;;;;;;;9.78;100.00;98868.22;6089076;19;20011;-71
2024/01/03 04:41:15;;;;;;;25.80;5.13;;;;;;;9.79;100.00;98859.41;6086395;19;20009;-71
2024/01/03 04:43:20;;;;;;;32.50;4.63;;;;;;;9.80;100.00;98837.50;6089073;19;20431;-72
2024/01/03 04:45:23;;;;;;;29.75;4.65;;;;;;;9.82;100.00;98860.06;6087841;19;20014;-72
2024/01/03 04:47:28;;;;;;;17.63;3.80;;;;;;;9.84;100.00;98852.06;6086891;19;20014;-72
2024/01/03 04:49:33;;;;;;;21.77;3.55;;;;;;;9.81;100.00;98857.53;6087033;19;20002;-72
2024/01/03 04:51:40;;;;;;;21.55;4.43;;;;;;;9.79;100.00;98846.28;6084359;19;20062;-72
2024/01/03 04:53:47;;;;;;;19.27;4.47;;;;;;;9.81;100.00;98845.25;6082020;19;20066;-72
2024/01/03 04:55:55;;;;;;;11.52;2.80;;;;;;;9.88;100.00;98857.00;6082253;19;20013;-71
2024/01/03 04:57:58;;;;;;;24.13;4.15;;;;;;;9.74;100.00;98854.50;6085415;19;20078;-72
2024/01/03 05:00:04;;;;;;;23.42;4.85;;;;;;;9.66;100.00;98862.91;6083706;19;20014;-72
2024/01/03 05:02:09;;;;;;;15.60;4.10;;;;;;;9.62;100.00;98864.03;6083448;19;20610;-73
2024/01/03 05:04:15;;;;;;;21.13;3.25;;;;;;;9.65;100.00;98861.19;6083062;19;20098;-72
2024/01/03 05:06:20;;;;;;;12.98;3.35;;;;;;;9.62;100.00;98864.03;6085406;19;20023;-73
2024/01/03 05:08:27;;;;;;;20.48;3.10;;;;;;;9.61;100.00;98866.75;6085996;19;20398;-71
2024/01/03 05:10:30;;;;;;;15.60;2.83;;;;;;;9.57;100.00;98860.03;6083210;19;20006;-74
2024/01/03 05:12:35;;;;;;;17.35;4.30;;;;;;;9.55;100.00;98860.13;6085655;19;20022;-73
2024/01/03 05:14:42;;;;;;;16.35;3.42;;;;;;;9.50;100.00;98857.00;6083213;19;20345;-73
2024/01/03 05:16:47;;;;;;;9.75;2.58;;;;;;;9.47;100.00;98872.09;6085270;19;20026;-72
2024/01/03 05:18:52;;;;;;;16.05;3.42;;;;;;;9.44;100.00;98853.00;6086069;19;20006;-72
2024/01/03 05:20:58;;;;;;;12.85;2.78;;;;;;;9.46;100.00;98863.41;6086066;19;20010;-73
2024/01/03 05:23:03;;;;;;;18.25;3.50;;;;;;;9.41;100.00;98866.31;6085370;19;20020;-72
2024/01/03 05:25:11;;;;;;;13.40;3.65;;;;;;;9.37;100.00;98864.00;6084005;19;20062;-73
2024/01/03 05:27:13;;;;;;;10.77;3.22;;;;;;;9.39;100.00;98872.63;6086176;19;20109;-72
2024/01/03 05:29:18;;;;;;;15.85;3.22;;;;;;;9.48;100.00;98866.75;6084464;19;20011;-72
2024/01/03 05:31:23;;;;;;;14.65;3.33;;;;;;;9.52;100.00;98862.97;6082933;19;20006;-72
2024/01/03 05:33:28;;;;;;;11.70;2.60;;;;;;;9.51;100.00;98861.31;6084539;19;20014;-72
2024/01/03 05:35:33;;;;;;;12.43;3.28;;;;;;;9.54;100.00;98861.09;6082772;19;20038;-72
2024/01/03 05:37:38;;;;;;;12.07;2.35;;;;;;;9.55;100.00;98861.94;6084051;19;20002;-73
2024/01/03 05:39:43;;;;;;;15.55;2.85;;;;;;;9.52;100.00;98865.59;6084144;19;20439;-73
2024/01/03 05:41:48;;;;;;;11.40;2.67;;;;;;;9.53;100.00;98879.53;6085890;19;20690;-72
2024/01/03 05:43:54;;;;;;;10.68;3.58;;;;;;;9.52;100.00;98859.53;6085947;19;20011;-72
2024/01/03 05:45:59;;;;;;;11.75;3.53;;;;;;;9.39;100.00;98864.75;6087309;19;20341;-72
2024/01/03 05:48:04;;;;;;;10.30;2.70;;;;;;;9.36;100.00;98859.72;6086261;19;20478;-72
2024/01/03 05:50:11;;;;;;;20.75;2.90;;;;;;;9.47;100.00;98872.94;6081509;19;20015;-71
2024/01/03 05:52:16;;;;;;;8.05;2.78;;;;;;;9.48;100.00;98874.63;6085882;19;20006;-72
2024/01/03 05:54:21;;;;;;;8.52;2.83;;;;;;;9.51;100.00;98869.19;6083400;19;20016;-72
2024/01/03 05:56:25;;;;;;;8.05;2.42;;;;;;;9.57;100.00;98865.28;6084333;19;20114;-72
2024/01/03 05:58:32;;;;;;;7.80;2.33;;;;;;;9.54;100.00;98871.59;6087125;19;20007;-72
2024/01/03 06:00:37;;;;;;;12.10;2.75;;;;;;;9.49;100.00;98881.53;6086348;19;20030;-72
2024/01/03 06:02:42;;;;;;;11.15;1.83;;;;;;;9.47;100.00;98888.66;6086942;19;20010;-73
2024/01/03 06:04:48;;;;;;;8.15;2.83;;;;;;;9.14;100.00;98876.88;6086214;19;20545;-72
2024/01/03 06:06:50;;;;;;;8.93;2.75;;;;;;;9.28;100.00;98877.75;6086601;19;20010;-72
2024/01/03 06:08:56;;;;;;;16.13;3.15;;;;;;;9.29;100.00;98879.41;6086468;19;20010;-72
2024/01/03 06:11:02;;;;;;;11.60;2.83;;;;;;;9.43;100.00;98881.97;6085290;19;20054;-71
2024/01/03 06:13:07;;;;;;;9.90;2.80;;;;;;;9.45;100.00;98880.06;6085422;19;20014;-72
2024/01/03 06:15:17;;;;;;;8.48;2.38;;;;;;;9.15;100.00;98885.56;6086351;19;20013;-72
2024/01/03 06:17:25;;;;;;;5.32;2.22;;;;;;;9.33;100.00;98884.34;6078547;19;20356;-72
2024/01/03 06:19:31;;;;;;;19.98;3.10;;;;;;;9.43;100.00;98892.44;6084467;19;20007;-72
2024/01/03 06:21:36;;;;;;;16.48;2.75;;;;;;;9.12;100.00;98897.09;6085234;19;20031;-72
2024/01/03 06:23:39;;;;;;;8.80;3.25;;;;;;;9.05;100.00;98905.44;6084349;19;20013;-72
2024/01/03 06:25:45;;;;;;;7.22;2.75;;;;;;;9.15;100.00;98896.88;6084819;19;20086;-72
2024/01/03 06:27:50;;;;;;;9.95;2.83;;;;;;;9.12;100.00;98894.47;6086233;19;20007;-71
2024/01/03 06:29:53;;;;;;;18.15;3.28;;;;;;;9.07;100.00;98899.19;6085363;19;20085;-71
2024/01/03 06:32:02;;;;;;;11.60;3.35;;;;;;;9.13;100.00;98896.13;6086028;19;20056;-70
2024/01/03 06:34:07;;;;;;;12.57;2.72;;;;;;;9.08;100.00;98900.84;6087181;19;20037;-70
2024/01/03 06:36:12;;;;;;;11.10;4.38;;;;;;;8.96;100.00;98905.13;6085659;19;20070;-71
2024/01/03 06:38:14;;;;;;;16.75;2.72;;;;;;;8.98;100.00;98908.47;6087698;19;20007;-72
2024/01/03 06:40:20;;;;;;;19.98;3.13;;;;;;;8.96;100.00;98905.13;6082751;19;20278;-72
2024/01/03 06:42:25;;;;;;;10.18;2.60;;;;;;;8.91;100.00;98916.84;6085400;19;20010;-71
2024/01/03 06:44:30;;;;;;;6.40;2.40;;;;;;;8.96;100.00;98922.63;6084384;19;20109;-72
2024/01/03 06:46:35;;;;;;;9.38;2.65;;;;;;;8.93;100.00;98904.47;6083925;19;20011;-72
2024/01/03 06:48:43;;;;;;;19.80;4.05;;;;;;;8.90;100.00;98913.38;6081689;19;20480;-71
2024/01/03 06:50:46;;;;;;;9.20;2.58;;;;;;;8.71;100.00;98908.47;6086079;19;20479;-71
2024/01/03 06:52:51;;;;;;;;;;;;;;;8.92;100.00;98921.13;6080600;19;20007;-71
2024/01/03 06:54:57;;;;;;;11.02;2.30;;;;;;;8.92;100.00;98915.88;6083388;19;19911;-71
2024/01/03 06:57:02;;;;;;;6.22;1.75;;;;;;;8.79;100.00;98916.69;6079669;19;20026;-71
2024/01/03 06:59:07;;;;;;;4.10;1.70;;;;;;;8.74;100.00;98921.38;6084576;19;20063;-70
2024/01/03 07:01:12;;;;;;;13.93;2.42;;;;;;;8.88;100.00;98919.66;6085184;19;20011;-70
2024/01/03 07:03:15;;;;;;;8.43;2.53;;;;;;;8.76;100.00;98935.19;6082287;19;20049;-69
2024/01/03 07:05:23;;;;;;;;;;;;;;;8.83;100.00;98924.34;6085299;19;20017;-69
2024/01/03 07:07:29;;;;;;;6.10;1.63;;;;;;;8.88;100.00;98935.38;6084914;19;19919;-71
2024/01/03 07:09:34;;;;;;;20.05;3.20;;;;;;;8.91;100.00;98932.56;6083257;19;20006;-69
2024/01/03 07:11:39;;;;;;;7.28;3.15;;;;;;;8.82;100.00;98941.84;6083212;19;20038;-71
2024/01/03 07:13:47;;;;;;;9.43;2.88;;;;;;;8.84;100.00;98949.59;6082399;19;20351;-70
2024/01/03 07:15:52;;;;;;;9.20;2.30;;;;;;;9.05;100.00;98937.72;6081548;19;20033;-70
2024/01/03 07:17:59;;;;;;;11.23;2.13;;;;;;;9.07;100.00;98938.47;6082031;19;20465;-70
2024/01/03 07:20:05;;;;;;;10.57;2.08;;;;;;;9.13;100.00;98934.63;6085697;19;20376;-70
2024/01/03 07:22:13;;;;;;;19.48;3.03;;;;;;;9.15;100.00;98938.81;6084471;19;20486;-70
2024/01/03 07:24:20;;;;;;;11.30;2.53;;;;;;;9.14;100.00;98939.75;6084995;19;20038;-70
2024/01/03 07:26:25;;;;;;;14.90;3.22;;;;;;;8.99;100.00;98954.69;6083910;19;20019;-73
2024/01/03 07:28:32;;;;;;;15.60;3.13;;;;;;;8.96;100.00;98946.19;6084724;19;20038;-73
2024/01/03 07:30:39;;;;;;;9.68;2.85;;;;;;;9.21;100.00;98946.28;6085817;19;20006;-72
2024/01/03 07:32:44;;;;;;;9.45;2.95;;;;;;;9.04;100.00;98954.41;6077482;19;20017;-72
2024/01/03 07:34:49;;;;;;;13.55;2.75;;;;;;;9.04;100.00;98941.31;6080419;19;20011;-71
2024/01/03 07:36:55;;;;;;;12.90;2.70;;;;;;;9.23;100.00;98941.78;6084663;19;20010;-70
2024/01/03 07:39:03;;;;;;;9.90;2.75;;;;;;;9.19;100.00;98945.56;6082539;19;20014;-69
2024/01/03 07:41:08;;;;;;;12.57;2.20;;;;;;;9.28;100.00;98946.72;6082901;19;20006;-70
2024/01/03 07:43:13;;;;;;;10.30;2.70;;;;;;;9.28;100.00;98948.50;6083064;19;20046;-72
2024/01/03 07:45:18;;;;;;;16.55;3.17;;;;;;;9.21;100.00;98961.16;6083764;19;20007;-72
2024/01/03 07:47:23;;;;;;;17.50;2.78;;;;;;;9.30;100.00;98944.00;6084079;19;20479;-71
2024/01/03 07:49:28;;;;;;;14.45;2.72;;;;;;;9.28;100.00;98953.75;6080124;19;20022;-71
2024/01/03 07:51:38;;;;;;;15.73;4.05;;;;;;;9.27;100.00;98955.53;6082361;19;20408;-71
2024/01/03 07:53:43;;;;;;;17.52;3.47;;;;;;;9.36;100.00;98964.56;6081607;19;20003;-70
2024/01/03 07:55:52;;;;;;;12.50;3.28;;;;;;;9.34;100.00;98955.97;6081997;19;20014;-72
2024/01/03 07:57:58;;;;;;;7.95;2.25;;;;;;;9.36;100.00;98959.31;6080176;19;20073;-73
2024/01/03 08:00:00;;;;;;;27.98;4.50;;;;;;;9.40;100.00;98966.03;6086072;19;20006;-72
2024/01/03 08:02:06;;;;;;;15.30;2.88;;;;;;;9.37;100.00;98967.09;6089681;19;20300;-72
2024/01/03 08:04:08;;;;;;;22.77;3.33;;;;;;;9.34;100.00;98967.28;6086893;19;20025;-73
2024/01/03 08:06:20;;;;;;;15.02;3.03;;;;;;;9.19;100.00;98979.63;6087450;19;20026;-72
2024/01/03 08:08:25;;;;;;;11.85;2.95;;;;;;;9.30;100.00;98980.72;6089982;19;20875;-72
2024/01/03 08:10:30;;;;;;;19.27;4.03;;;;;;;9.41;100.00;98967.72;6087022;19;20469;-73
2024/01/03 08:12:39;;;;;;;14.25;3.08;;;;;;;9.43;100.00;98971.09;6089064;19;20002;-73
2024/01/03 08:14:44;;;;;;;14.65;2.90;;;;;;;9.45;100.00;98971.81;6088924;19;20022;-71
2024/01/03 08:16:50;;;;;;;12.35;2.85;;;;;;;9.37;100.00;98982.84;6084485;19;20021;-72
2024/01/03 08:18:54;;;;;;;7.18;2.80;;;;;;;9.32;100.00;98973.56;6081280;19;20013;-70
2024/01/03 08:20:59;;;;;;;7.95;3.00;;;;;;;9.33;100.00;98985.75;6084516;19;20011;-70
2024/01/03 08:23:06;;;;;;;22.95;4.78;;;;;;;9.33;100.00;98983.13;6089742;19;20013;-70
2024/01/03 08:25:11;;;;;;;18.85;3.70;;;;;;;9.31;100.00;98990.25;6089220;19;20013;-70
2024/01/03 08:27:17;;;;;;;17.20;3.38;;;;;;;9.31;100.00;98987.63;6084466;19;20050;-72
2024/01/03 08:29:24;;;;;;;17.65;3.28;;;;;;;9.29;100.00;98981.63;6085508;19;20461;-70
2024/01/03 08:31:27;;;;;;;22.67;4.32;;;;;;;9.28;100.00;98991.28;6086814;19;20047;-72
2024/01/03 08:33:32;;;;;;;18.40;2.83;;;;;;;9.28;100.00;98988.66;6087205;19;20624;-72
2024/01/03 08:35:37;;;;;;;14.98;2.83;;;;;;;9.29;100.00;98995.56;6089949;19;20523;-72
2024/01/03 08:37:42;;;;;;;12.63;3.25;;;;;;;9.39;100.00;99001.06;6089045;19;20046;-71
2024/01/03 08:39:47;;;;;;;18.77;3.85;;;;;;;9.42;100.00;99001.69;6088783;19;20018;-71
2024/01/03 08:41:53;;;;;;;12.63;2.97;;;;;;;9.29;100.00;98994.72;6087539;19;20014;-71
2024/01/03 08:43:58;;;;;;;19.27;2.58;;;;;;;9.29;100.00;99000.81;6090466;19;20018;-71
2024/01/03 08:46:08;;;;;;;15.95;4.35;;;;;;;9.34;100.00;98996.13;6089872;19;20018;-71
2024/01/03 08:48:15;;;;;;;11.85;3.25;;;;;;;9.45;100.00;98998.03;6088360;19;20036;-70
2024/01/03 08:50:21;;;;;;;15.88;3.80;;;;;;;9.45;100.00;98996.28;6088802;19;20019;-71
2024/01/03 08:52:26;;;;;;;12.30;2.83;;;;;;;9.48;100.00;98995.22;6084778;19;20509;-72
2024/01/03 08:54:31;;;;;;;13.55;3.78;;;;;;;9.43;100.00;98999.94;6086917;19;20196;-71
2024/01/03 08:56:38;;;;;;;23.27;3.88;;;;;;;9.37;100.00;98998.56;6087531;19;20041;-71
2024/01/03 08:58:41;;;;;;;16.52;3.90;;;;;;;9.47;100.00;99009.25;6086125;19;20018;-71
2024/01/03 09:00:46;;;;;;;15.98;3.15;;;;;;;9.50;100.00;99014.31;6086247;19;20428;-71
2024/01/03 09:02:57;;;;;;;10.23;2.28;;;;;;;9.54;100.00;99005.31;6089169;19;20066;-72
2024/01/03 09:05:02;;;;;;;12.93;2.83;;;;;;;9.56;100.00;99008.69;6088114;19;20086;-71
2024/01/03 09:07:07;;;;;;;15.60;3.75;;;;;;;9.58;100.00;99000.69;6090209;19;20593;-71
2024/01/03 09:09:12;;;;;;;16.33;3.67;;;;;;;9.49;100.00;99006.56;6085769;19;20033;-69
2024/01/03 09:11:17;;;;;;;8.35;2.00;;;;;;;9.46;100.00;99015.47;6085356;19;20007;-70
2024/01/03 09:13:22;;;;;;;12.45;3.10;;;;;;;9.29;100.00;99024.41;6086499;19;20018;-70
2024/01/03 09:15:27;;;;;;;18.13;3.08;;;;;;;9.28;100.00;99037.63;6084085;19;20065;-72
2024/01/03 09:17:33;;;;;;;13.38;3.40;;;;;;;9.27;100.00;99036.78;6082057;19;20013;-72
2024/01/03 09:19:42;;;;;;;11.95;3.13;;;;;;;9.41;100.00;99051.63;6081353;19;20015;-70
2024/01/03 09:21:47;;;;;;;10.70;2.58;;;;;;;9.40;100.00;99039.44;6081394;19;20015;-70
2024/01/03 09:23:54;;;;;;;13.52;2.83;;;;;;;9.39;100.00;99040.38;6083475;19;20058;-69
2024/01/03 09:25:59;;;;;;;8.27;1.85;;;;;;;9.26;100.00;99048.19;6085678;19;20014;-71
2024/01/03 09:28:04;;;;;;;14.52;3.15;;;;;;;9.34;100.00;99042.47;6086391;19;20022;-73
2024/01/03 09:30:10;;;;;;;9.65;2.38;;;;;;;9.36;100.00;99051.06;6087021;19;20035;-72
2024/01/03 09:32:18;;;;;;;19.73;3.13;;;;;;;9.34;100.00;99050.31;6090904;19;20007;-74
2024/01/03 09:34:23;;;;;;;14.77;3.47;;;;;;;9.22;100.00;99044.94;6087360;19;20046;-72
2024/01/03 09:36:31;;;;;;;17.50;3.53;;;;;;;9.23;100.00;99062.34;6086364;19;20014;-71
2024/01/03 09:38:36;;;;;;;13.98;3.60;;;;;;;9.30;100.00;99064.59;6088918;19;20011;-71
2024/01/03 09:40:43;;;;;;;17.63;2.85;;;;;;;9.28;100.00;99059.44;6088911;19;20407;-71
2024/01/03 09:42:50;;;;;;;14.65;2.90;;;;;;;9.28;100.00;99061.22;6088853;19;20010;-70
2024/01/03 09:44:56;;;;;;;19.25;3.10;;;;;;;9.26;100.00;99068.31;6087057;19;20333;-73
2024/01/03 09:47:03;;;;;;;11.02;2.90;;;;;;;9.38;100.00;99057.06;6083551;19;20010;-70